createdAt,value
2022-08-20T00:01:39.530Z,21.44
2022-08-20T00:04:06.241Z,21.45
2022-08-20T00:06:34.229Z,21.31
2022-08-20T00:09:00.806Z,21.41
2022-08-20T00:11:29.061Z,21.41
2022-08-20T00:13:59.539Z,21.38
2022-08-20T00:16:32.914Z,21.31
2022-08-20T00:19:01.241Z,21.32
2022-08-20T00:21:28.235Z,21.28
2022-08-20T00:23:58.467Z,21.24
2022-08-20T00:26:25.330Z,21.08
2022-08-20T00:28:52.742Z,21.07
2022-08-20T00:31:22.091Z,20.94
2022-08-20T00:33:48.892Z,20.81
2022-08-20T00:36:17.614Z,20.86
2022-08-20T00:38:46.241Z,20.70
2022-08-20T00:41:21.242Z,20.65
2022-08-20T00:44:21.912Z,20.65
2022-08-20T00:46:49.473Z,20.67
2022-08-20T00:49:18.366Z,20.55
2022-08-20T00:51:50.448Z,20.53
2022-08-20T00:54:23.016Z,20.40
2022-08-20T00:57:12.432Z,20.43
2022-08-20T00:59:41.757Z,20.40
2022-08-20T01:02:13.563Z,20.42
2022-08-20T01:04:43.780Z,20.52
2022-08-20T01:07:11.290Z,20.38
2022-08-20T01:09:58.231Z,20.40
2022-08-20T01:12:25.215Z,20.40
2022-08-20T01:14:52.103Z,20.32
2022-08-20T01:17:24.684Z,20.36
2022-08-20T01:19:56.922Z,20.30
2022-08-20T01:23:01.832Z,20.26
2022-08-20T01:25:46.992Z,20.25
2022-08-20T01:28:16.289Z,20.28
2022-08-20T01:30:42.921Z,20.25
2022-08-20T01:33:09.962Z,20.21
2022-08-20T01:35:41.525Z,20.26
2022-08-20T01:38:08.985Z,20.21
2022-08-20T01:40:52.029Z,20.22
2022-08-20T01:43:18.679Z,20.28
2022-08-20T01:45:48.716Z,20.24
2022-08-20T01:48:17.583Z,20.22
2022-08-20T01:50:53.366Z,20.12
2022-08-20T01:53:34.776Z,20.12
2022-08-20T01:56:05.229Z,20.12
2022-08-20T01:58:33.448Z,20.01
2022-08-20T02:01:00.109Z,20.05
2022-08-20T02:03:26.958Z,20.05
2022-08-20T02:05:53.642Z,20.00
2022-08-20T02:08:23.205Z,20.11
2022-08-20T02:10:50.166Z,20.07
2022-08-20T02:13:17.184Z,20.07
2022-08-20T02:15:43.946Z,20.01
2022-08-20T02:18:14.889Z,20.01
2022-08-20T02:20:43.257Z,19.91
2022-08-20T02:23:11.973Z,20.00
2022-08-20T02:25:40.355Z,20.11
2022-08-20T02:28:09.810Z,19.97
2022-08-20T02:30:40.364Z,19.91
2022-08-20T02:33:10.088Z,19.91
2022-08-20T02:35:37.844Z,19.87
2022-08-20T02:38:04.685Z,19.80
2022-08-20T02:40:32.443Z,19.95
2022-08-20T02:42:59.892Z,19.84
2022-08-20T02:45:26.895Z,19.74
2022-08-20T02:47:54.234Z,19.84
2022-08-20T02:50:23.937Z,19.88
2022-08-20T02:52:52.142Z,19.91
2022-08-20T02:55:26.997Z,19.98
2022-08-20T02:58:00.175Z,19.94
2022-08-20T03:00:29.079Z,20.01
2022-08-20T03:02:59.341Z,20.08
2022-08-20T03:05:26.403Z,20.07
2022-08-20T03:07:53.853Z,20.04
2022-08-20T03:10:27.980Z,20.00
2022-08-20T03:12:54.731Z,20.00
2022-08-20T03:15:21.581Z,20.12
2022-08-20T03:17:48.125Z,20.07
2022-08-20T03:20:15.186Z,20.04
2022-08-20T03:22:41.713Z,20.08
2022-08-20T03:25:09.085Z,20.09
2022-08-20T03:27:36.493Z,20.15
2022-08-20T03:30:04.989Z,20.11
2022-08-20T03:32:31.639Z,20.15
2022-08-20T03:34:58.225Z,20.21
2022-08-20T03:37:25.413Z,20.15
2022-08-20T03:39:52.189Z,20.17
2022-08-20T03:42:18.884Z,20.18
2022-08-20T03:44:45.368Z,20.11
2022-08-20T03:47:12.064Z,20.25
2022-08-20T03:49:38.600Z,20.17
2022-08-20T03:52:05.376Z,20.19
2022-08-20T03:54:32.313Z,20.24
2022-08-20T03:57:00.272Z,20.18
2022-08-20T03:59:26.953Z,20.11
2022-08-20T04:01:53.616Z,20.08
2022-08-20T04:04:21.185Z,20.05
2022-08-20T04:06:47.799Z,20.07
2022-08-20T04:09:15.174Z,20.17
2022-08-20T04:11:42.396Z,20.17
2022-08-20T04:14:11.127Z,20.15
2022-08-20T04:16:40.357Z,20.26
2022-08-20T04:19:07.762Z,20.15
2022-08-20T04:21:35.715Z,20.14
2022-08-20T04:24:04.630Z,20.29
2022-08-20T04:26:32.053Z,20.28
2022-08-20T04:28:58.901Z,20.30
2022-08-20T04:31:25.695Z,20.24
2022-08-20T04:33:52.579Z,20.26
2022-08-20T04:36:19.381Z,20.22
2022-08-20T04:38:47.908Z,20.24
2022-08-20T04:41:23.567Z,20.18
2022-08-20T04:43:53.215Z,20.17
2022-08-20T04:46:21.046Z,19.94
2022-08-20T04:48:49.146Z,19.85
2022-08-20T04:51:17.298Z,19.68
2022-08-20T04:53:51.873Z,19.78
2022-08-20T04:56:23.776Z,19.63
2022-08-20T04:58:52.486Z,19.47
2022-08-20T05:01:19.800Z,19.45
2022-08-20T05:03:47.886Z,19.35
2022-08-20T05:06:16.224Z,19.32
2022-08-20T05:08:44.003Z,19.24
2022-08-20T05:11:34.138Z,19.20
2022-08-20T05:13:58.065Z,19.16
2022-08-20T05:16:24.928Z,19.33
2022-08-20T05:18:52.409Z,19.09
2022-08-20T05:21:20.654Z,19.20
2022-08-20T05:23:47.135Z,19.42
2022-08-20T05:26:16.135Z,19.28
2022-08-20T05:28:58.001Z,19.20
2022-08-20T05:31:32.435Z,19.18
2022-08-20T05:34:11.185Z,19.20
2022-08-20T05:36:49.049Z,19.09
2022-08-20T05:39:18.373Z,19.13
2022-08-20T05:41:44.975Z,19.19
2022-08-20T05:44:14.043Z,19.28
2022-08-20T05:46:42.774Z,19.28
2022-08-20T05:49:16.178Z,19.35
2022-08-20T05:51:43.721Z,19.30
2022-08-20T05:54:10.296Z,19.30
2022-08-20T05:56:37.280Z,19.32
2022-08-20T05:59:05.036Z,19.35
2022-08-20T06:01:34.299Z,19.36
2022-08-20T06:04:19.781Z,19.30
2022-08-20T06:06:47.284Z,19.36
2022-08-20T06:09:16.522Z,19.43
2022-08-20T06:11:54.720Z,19.50
2022-08-20T06:14:26.610Z,19.56
2022-08-20T06:16:57.569Z,19.63
2022-08-20T06:19:26.173Z,19.49
2022-08-20T06:21:52.959Z,19.49
2022-08-20T06:24:21.385Z,19.49
2022-08-20T06:26:48.167Z,19.54
2022-08-20T06:33:39.585Z,19.40
2022-08-20T06:36:07.153Z,19.38
2022-08-20T06:38:33.580Z,19.28
2022-08-20T06:41:05.936Z,19.24
2022-08-20T06:43:32.562Z,19.29
2022-08-20T06:45:59.061Z,19.33
2022-08-20T06:48:25.549Z,19.24
2022-08-20T06:50:53.268Z,19.30
2022-08-20T06:53:20.931Z,19.42
2022-08-20T06:55:49.418Z,19.46
2022-08-20T06:58:37.832Z,19.49
2022-08-20T07:01:09.520Z,19.20
2022-08-20T07:03:38.187Z,19.18
2022-08-20T07:06:05.589Z,19.09
2022-08-20T07:08:32.268Z,19.08
2022-08-20T07:10:59.629Z,18.96
2022-08-20T07:13:26.289Z,18.98
2022-08-20T07:15:54.181Z,19.02
2022-08-20T07:18:28.037Z,19.13
2022-08-20T07:20:57.378Z,19.19
2022-08-20T07:23:27.549Z,19.15
2022-08-20T07:25:55.732Z,19.24
2022-08-20T07:28:24.193Z,19.33
2022-08-20T07:31:13.844Z,19.23
2022-08-20T07:33:44.790Z,19.33
2022-08-20T07:36:12.333Z,19.28
2022-08-20T07:38:38.991Z,19.38
2022-08-20T07:41:13.473Z,19.29
2022-08-20T07:43:40.983Z,19.36
2022-08-20T07:46:09.085Z,19.59
2022-08-20T07:48:40.092Z,19.71
2022-08-20T07:51:08.501Z,19.87
2022-08-20T07:53:37.500Z,19.85
2022-08-20T07:56:06.542Z,19.59
2022-08-20T07:58:35.774Z,19.63
2022-08-20T08:01:02.508Z,19.81
2022-08-20T08:03:40.558Z,19.84
2022-08-20T08:06:19.970Z,19.80
2022-08-20T08:09:08.201Z,19.63
2022-08-20T08:11:38.228Z,19.81
2022-08-20T08:14:08.264Z,19.78
2022-08-20T08:16:36.216Z,19.71
2022-08-20T08:19:06.626Z,19.57
2022-08-20T08:21:33.384Z,19.60
2022-08-20T08:24:00.480Z,19.64
2022-08-20T08:26:29.030Z,19.53
2022-08-20T08:28:56.142Z,19.53
2022-08-20T08:31:22.770Z,19.29
2022-08-20T08:33:49.246Z,19.40
2022-08-20T08:36:16.774Z,19.45
2022-08-20T08:38:45.281Z,19.50
2022-08-20T08:41:24.596Z,19.53
2022-08-20T08:43:54.363Z,19.49
2022-08-20T08:46:27.294Z,19.30
2022-08-20T08:48:57.920Z,19.38
2022-08-20T08:51:37.318Z,19.40
2022-08-20T08:54:07.186Z,19.30
2022-08-20T08:56:34.864Z,19.06
2022-08-20T08:59:07.762Z,19.16
2022-08-20T09:01:55.695Z,19.10
2022-08-20T09:04:30.423Z,19.08
2022-08-20T09:06:58.773Z,19.28
2022-08-20T09:09:31.422Z,19.12
2022-08-20T09:12:08.527Z,19.23
2022-08-20T09:14:36.277Z,19.18
2022-08-20T09:17:03.099Z,19.10
2022-08-20T09:19:29.774Z,19.20
2022-08-20T09:21:56.346Z,19.35
2022-08-20T09:24:22.966Z,19.28
2022-08-20T09:26:49.555Z,19.35
2022-08-20T09:29:16.205Z,19.12
2022-08-20T09:31:43.553Z,19.19
2022-08-20T09:34:11.756Z,19.16
2022-08-20T09:36:38.365Z,19.24
2022-08-20T09:39:05.003Z,19.45
2022-08-20T09:41:33.865Z,19.49
2022-08-20T09:44:01.449Z,19.46
2022-08-20T09:46:27.989Z,19.46
2022-08-20T09:48:55.246Z,19.75
2022-08-20T09:51:22.240Z,19.71
2022-08-20T09:53:49.231Z,19.60
2022-08-20T09:56:16.903Z,19.66
2022-08-20T09:58:48.524Z,19.61
2022-08-20T10:01:17.041Z,19.71
2022-08-20T10:03:44.962Z,19.85
2022-08-20T10:06:14.724Z,20.02
2022-08-20T10:08:41.323Z,19.91
2022-08-20T10:11:07.828Z,20.04
2022-08-20T10:13:34.337Z,20.39
2022-08-20T10:16:00.875Z,20.49
2022-08-20T10:18:27.582Z,20.40
2022-08-20T10:20:54.174Z,20.50
2022-08-20T10:23:20.720Z,20.45
2022-08-20T10:25:47.211Z,20.76
2022-08-20T10:28:13.817Z,20.94
2022-08-20T10:30:40.469Z,20.98
2022-08-20T10:33:07.080Z,21.14
2022-08-20T10:35:33.916Z,21.10
2022-08-20T10:38:00.585Z,21.48
2022-08-20T10:40:27.204Z,21.64
2022-08-20T10:42:53.863Z,21.56
2022-08-20T10:45:20.417Z,21.46
2022-08-20T10:47:47.102Z,21.42
2022-08-20T10:50:16.747Z,21.45
2022-08-20T10:52:43.801Z,21.69
2022-08-20T10:55:10.823Z,22.09
2022-08-20T10:57:40.038Z,22.04
2022-08-20T11:00:10.222Z,21.99
2022-08-20T11:02:37.595Z,22.04
2022-08-20T11:05:05.055Z,22.03
2022-08-20T11:07:56.283Z,22.96
2022-08-20T11:10:19.519Z,24.17
2022-08-20T11:12:46.664Z,23.46
2022-08-20T11:15:14.038Z,22.74
2022-08-20T11:17:42.458Z,22.60
2022-08-20T11:20:11.860Z,22.61
2022-08-20T11:22:38.429Z,22.20
2022-08-20T11:25:06.685Z,23.21
2022-08-20T11:27:36.992Z,23.42
2022-08-20T11:30:05.214Z,23.39
2022-08-20T11:32:31.744Z,22.60
2022-08-20T11:34:58.375Z,23.07
2022-08-20T11:37:25.661Z,24.41
2022-08-20T11:39:52.518Z,25.07
2022-08-20T11:42:19.144Z,25.30
2022-08-20T11:44:45.637Z,24.32
2022-08-20T11:47:21.933Z,24.62
2022-08-20T11:49:57.395Z,24.71
2022-08-20T11:52:23.990Z,25.12
2022-08-20T11:54:54.821Z,24.69
2022-08-20T11:57:23.749Z,24.92
2022-08-20T11:59:51.064Z,25.17
2022-08-20T12:02:17.559Z,25.04
2022-08-20T12:04:44.358Z,25.00
2022-08-20T12:07:17.791Z,25.61
2022-08-20T12:09:50.686Z,24.61
2022-08-20T12:12:20.556Z,23.86
2022-08-20T12:14:47.129Z,23.03
2022-08-20T12:17:23.598Z,23.33
2022-08-20T12:19:52.150Z,24.49
2022-08-20T12:22:24.564Z,24.89
2022-08-20T12:24:52.442Z,25.12
2022-08-20T12:27:20.653Z,25.45
2022-08-20T12:29:49.479Z,25.68
2022-08-20T12:32:16.141Z,25.19
2022-08-20T12:34:43.283Z,25.80
2022-08-20T12:37:17.902Z,25.95
2022-08-20T12:39:47.800Z,25.22
2022-08-20T12:42:15.457Z,24.72
2022-08-20T12:44:43.295Z,25.22
2022-08-20T12:47:14.344Z,25.58
2022-08-20T12:49:50.138Z,25.73
2022-08-20T12:52:18.908Z,25.55
2022-08-20T12:54:46.568Z,26.49
2022-08-20T12:57:26.325Z,25.57
2022-08-20T12:59:52.819Z,25.33
2022-08-20T13:02:19.428Z,24.93
2022-08-20T13:04:45.984Z,25.19
2022-08-20T13:07:13.371Z,25.07
2022-08-20T13:09:40.621Z,25.06
2022-08-20T13:12:08.189Z,25.04
2022-08-20T13:14:35.188Z,24.99
2022-08-20T13:17:02.227Z,25.38
2022-08-20T13:19:30.522Z,25.43
2022-08-20T13:21:57.313Z,25.65
2022-08-20T13:24:23.944Z,26.29
2022-08-20T13:26:50.989Z,25.73
2022-08-20T13:29:19.333Z,25.51
2022-08-20T13:31:46.080Z,25.17
2022-08-20T13:34:13.128Z,24.80
2022-08-20T13:36:40.791Z,24.69
2022-08-20T13:39:07.765Z,24.99
2022-08-20T13:41:34.683Z,24.71
2022-08-20T13:44:01.587Z,24.59
2022-08-20T13:46:28.253Z,26.15
2022-08-20T13:48:54.829Z,26.73
2022-08-20T13:51:22.839Z,26.53
2022-08-20T13:53:54.376Z,26.32
2022-08-20T13:56:20.910Z,27.12
2022-08-20T13:58:47.512Z,27.62
2022-08-20T14:01:14.119Z,27.27
2022-08-20T14:03:40.975Z,27.30
2022-08-20T14:06:09.965Z,27.92
2022-08-20T14:08:36.760Z,29.00
2022-08-20T14:11:03.507Z,28.41
2022-08-20T14:13:30.388Z,28.12
2022-08-20T14:15:57.121Z,28.13
2022-08-20T14:18:23.709Z,27.39
2022-08-20T14:20:50.312Z,26.37
2022-08-20T14:23:16.883Z,25.95
2022-08-20T14:25:48.345Z,26.39
2022-08-20T14:28:21.130Z,26.16
2022-08-20T14:30:52.851Z,26.53
2022-08-20T14:33:20.629Z,27.43
2022-08-20T14:35:47.180Z,27.52
2022-08-20T14:38:13.802Z,27.51
2022-08-20T14:40:40.508Z,27.41
2022-08-20T14:43:07.046Z,26.97
2022-08-20T14:45:33.860Z,27.12
2022-08-20T14:48:00.420Z,27.02
2022-08-20T14:50:30.571Z,27.02
2022-08-20T14:52:57.648Z,27.93
2022-08-20T14:55:27.573Z,27.70
2022-08-20T14:57:54.684Z,27.07
2022-08-20T15:00:23.201Z,27.32
2022-08-20T15:02:49.951Z,27.58
2022-08-20T15:05:16.943Z,28.65
2022-08-20T15:07:47.710Z,29.05
2022-08-20T15:10:32.762Z,28.23
2022-08-20T15:12:59.602Z,27.83
2022-08-20T15:15:26.207Z,27.69
2022-08-20T15:17:57.726Z,27.66
2022-08-20T15:20:28.543Z,27.82
2022-08-20T15:22:55.633Z,28.37
2022-08-20T15:25:24.741Z,27.92
2022-08-20T15:27:51.630Z,27.92
2022-08-20T15:30:22.231Z,28.75
2022-08-20T15:32:54.175Z,28.23
2022-08-20T15:35:25.941Z,28.19
2022-08-20T15:37:55.465Z,28.01
2022-08-20T15:40:27.827Z,28.10
2022-08-20T15:42:56.134Z,27.63
2022-08-20T15:45:22.680Z,28.06
2022-08-20T15:47:51.988Z,28.26
2022-08-20T15:50:34.697Z,28.21
2022-08-20T15:53:08.682Z,28.24
2022-08-20T15:55:40.975Z,27.79
2022-08-20T15:58:37.165Z,28.16
2022-08-20T16:01:24.527Z,28.01
2022-08-20T16:03:59.672Z,28.65
2022-08-20T16:06:30.913Z,28.17
2022-08-20T16:09:23.630Z,27.76
2022-08-20T16:12:10.584Z,27.53
2022-08-20T16:14:41.164Z,27.92
2022-08-20T16:17:11.192Z,28.43
2022-08-20T16:19:55.236Z,28.48
2022-08-20T16:22:22.871Z,28.52
2022-08-20T16:24:50.101Z,27.58
2022-08-20T16:28:00.973Z,27.88
2022-08-20T16:30:59.360Z,27.75
2022-08-20T16:33:34.858Z,27.41
2022-08-20T16:36:03.795Z,27.22
2022-08-20T16:38:59.388Z,27.51
2022-08-20T16:41:31.838Z,27.25
2022-08-20T16:44:05.049Z,27.39
2022-08-20T16:46:38.073Z,27.37
2022-08-20T16:49:11.334Z,27.07
2022-08-20T16:51:41.858Z,27.02
2022-08-20T16:54:10.763Z,27.68
2022-08-20T16:56:42.085Z,27.76
2022-08-20T16:59:12.772Z,27.66
2022-08-20T17:02:07.242Z,27.39
2022-08-20T17:05:00.093Z,27.30
2022-08-20T17:07:42.550Z,27.65
2022-08-20T17:10:31.860Z,27.72
2022-08-20T17:13:04.731Z,27.34
2022-08-20T17:15:35.293Z,27.24
2022-08-20T17:18:29.846Z,27.11
2022-08-20T17:21:02.868Z,27.20
2022-08-20T17:23:40.636Z,27.10
2022-08-20T17:26:28.160Z,27.17
2022-08-20T17:29:04.258Z,26.60
2022-08-20T17:31:39.064Z,26.80
2022-08-20T17:34:05.881Z,26.80
2022-08-20T17:36:34.332Z,26.53
2022-08-20T17:39:01.671Z,26.29
2022-08-20T17:41:34.376Z,26.33
2022-08-20T17:44:08.322Z,25.82
2022-08-20T17:46:43.430Z,25.58
2022-08-20T17:49:14.779Z,25.70
2022-08-20T17:51:51.862Z,25.64
2022-08-20T17:58:54.611Z,25.22
2022-08-20T18:01:23.123Z,24.93
2022-08-20T18:03:51.483Z,24.93
2022-08-20T18:06:39.966Z,24.73
2022-08-20T18:09:16.981Z,24.58
2022-08-20T18:12:03.749Z,24.41
2022-08-20T18:14:30.319Z,24.38
2022-08-20T18:17:02.876Z,24.29
2022-08-20T18:20:03.688Z,24.08
2022-08-20T18:22:33.920Z,24.01
2022-08-20T18:25:09.694Z,23.87
2022-08-20T18:27:44.863Z,23.86
2022-08-20T18:30:18.810Z,23.81
2022-08-20T18:32:47.718Z,23.70
2022-08-20T18:35:32.811Z,23.65
2022-08-20T18:38:22.356Z,23.45
2022-08-20T18:40:54.929Z,23.45
2022-08-20T18:43:30.619Z,23.36
2022-08-20T18:46:12.841Z,23.28
2022-08-20T18:48:50.813Z,23.28
2022-08-20T18:51:21.356Z,23.19
2022-08-20T18:53:51.897Z,23.01
2022-08-20T18:56:35.297Z,23.03
2022-08-20T18:59:21.170Z,22.92
2022-08-20T19:01:49.196Z,22.85
2022-08-20T19:04:23.904Z,22.65
2022-08-20T19:07:11.437Z,22.30
2022-08-20T19:09:37.933Z,22.22
2022-08-20T19:12:20.777Z,22.24
2022-08-20T19:15:07.884Z,22.13
2022-08-20T19:17:44.767Z,21.92
2022-08-20T19:20:19.768Z,21.93
2022-08-20T19:22:49.017Z,21.93
2022-08-20T19:25:29.750Z,21.83
2022-08-20T19:28:03.366Z,21.79
2022-08-20T19:30:34.426Z,21.71
2022-08-20T19:33:01.454Z,21.52
2022-08-20T19:35:28.181Z,21.32
2022-08-20T19:37:54.753Z,21.37
2022-08-20T19:40:31.081Z,21.48
2022-08-20T19:43:04.375Z,21.46
2022-08-20T19:45:38.720Z,21.25
2022-08-20T19:48:27.606Z,21.28
2022-08-20T19:50:54.843Z,21.16
2022-08-20T19:53:30.481Z,20.94
2022-08-20T19:56:06.499Z,20.90
2022-08-20T19:58:34.369Z,20.88
2022-08-20T20:01:03.219Z,20.84
2022-08-20T20:03:33.672Z,20.90
2022-08-20T20:06:00.214Z,20.84
2022-08-20T20:08:39.558Z,20.75
2022-08-20T20:11:06.450Z,20.72
2022-08-20T20:13:33.287Z,20.65
2022-08-20T20:16:04.875Z,20.69
2022-08-20T20:18:36.960Z,20.63
2022-08-20T20:21:14.101Z,20.40
2022-08-20T20:23:46.456Z,20.25
2022-08-20T20:26:17.143Z,20.26
2022-08-20T20:28:53.307Z,20.28
2022-08-20T20:31:24.716Z,20.22
2022-08-20T20:33:55.390Z,20.14
2022-08-20T20:36:40.435Z,19.91
2022-08-20T20:39:29.625Z,19.88
2022-08-20T20:42:00.041Z,19.91
2022-08-20T20:44:37.415Z,19.82
2022-08-20T20:47:08.194Z,19.84
2022-08-20T20:49:52.256Z,19.67
2022-08-20T20:52:28.769Z,19.77
2022-08-20T20:55:12.068Z,19.92
2022-08-20T20:57:39.153Z,19.64
2022-08-20T21:00:13.446Z,19.53
2022-08-20T21:02:40.932Z,19.56
2022-08-20T21:05:08.153Z,19.56
2022-08-20T21:07:34.679Z,19.35
2022-08-20T21:10:01.970Z,19.24
2022-08-20T21:12:29.519Z,19.12
2022-08-20T21:14:56.166Z,19.16
2022-08-20T21:17:23.107Z,19.16
2022-08-20T21:19:51.751Z,18.78
2022-08-20T21:22:19.850Z,18.88
2022-08-20T21:24:48.554Z,18.92
2022-08-20T21:27:15.885Z,18.81
2022-08-20T21:29:42.438Z,18.88
2022-08-20T21:32:09.348Z,18.75
2022-08-20T21:34:39.424Z,18.88
2022-08-20T21:37:06.013Z,18.94
2022-08-20T21:39:32.637Z,18.92
2022-08-20T21:42:02.359Z,18.85
2022-08-20T21:44:31.694Z,18.87
2022-08-20T21:47:00.371Z,18.82
2022-08-20T21:49:28.560Z,18.72
2022-08-20T21:51:56.604Z,18.87
2022-08-20T21:54:24.116Z,18.82
2022-08-20T21:56:54.186Z,18.77
2022-08-20T21:59:22.581Z,18.65
2022-08-20T22:01:49.302Z,18.48
2022-08-20T22:04:15.832Z,18.44
2022-08-20T22:06:42.462Z,18.36
2022-08-20T22:09:09.035Z,18.40
2022-08-20T22:11:35.890Z,18.38
2022-08-20T22:14:02.913Z,18.41
2022-08-20T22:16:29.481Z,18.51
2022-08-20T22:18:56.047Z,18.30
2022-08-20T22:21:25.657Z,18.19
2022-08-20T22:23:53.870Z,18.23
2022-08-20T22:26:21.140Z,18.00
2022-08-20T22:28:51.040Z,17.96
2022-08-20T22:31:21.250Z,18.00
2022-08-20T22:33:47.775Z,17.89
2022-08-20T22:36:14.301Z,17.99
2022-08-20T22:38:40.949Z,17.83
2022-08-20T22:41:09.684Z,17.82
2022-08-20T22:43:36.544Z,17.99
2022-08-20T22:46:15.113Z,17.87
2022-08-20T22:48:42.822Z,17.95
2022-08-20T22:51:09.758Z,17.78
2022-08-20T22:53:36.608Z,17.75
2022-08-20T22:56:04.128Z,17.45
2022-08-20T22:58:31.514Z,17.38
2022-08-20T23:01:01.052Z,17.38
2022-08-20T23:03:39.281Z,17.54
2022-08-20T23:06:08.962Z,17.50
2022-08-20T23:08:35.604Z,17.71
2022-08-20T23:11:02.096Z,17.63
2022-08-20T23:13:28.768Z,17.35
2022-08-20T23:15:55.662Z,17.38
2022-08-20T23:18:22.304Z,17.34
2022-08-20T23:20:52.683Z,17.31
2022-08-20T23:23:19.872Z,17.28
2022-08-20T23:25:46.716Z,17.48
2022-08-20T23:28:13.197Z,17.62
2022-08-20T23:30:39.778Z,17.35
2022-08-20T23:33:06.280Z,17.37
2022-08-20T23:35:33.170Z,17.26
2022-08-20T23:38:00.122Z,17.28
2022-08-20T23:40:28.427Z,17.40
2022-08-20T23:42:55.233Z,17.03
2022-08-20T23:45:21.886Z,16.75
2022-08-20T23:47:48.829Z,16.77
2022-08-20T23:50:21.879Z,16.90
2022-08-20T23:52:51.727Z,16.82
2022-08-20T23:55:18.695Z,17.24
